Central, Alaska
Current Conditions -  °F | °C
As of 2:56 AM on Monday 24 Nov 2014 (Local Time) from PFYU Reporting Station
Overcast Overcast  
Wind Chill: -6°   Ceiling: 8500
Heat Index: -6°   Visibility: 10mi
Dew Point: -13°   Wind: 3mph
Humidity: 71%   Direction: 60°ENE
Pressure: 29.88"   Gusts: NA
Location:  65.57°N, 144.81°W
Report Text: PFYU 241156Z 06003KT 10SM OVC085 M21/M25 A2988 RMK AO1 11210 21270 54000
Loading
Personal Weather Stations






























Interactive Weather Map New forecast layout! Learn more

10-Day Weather Forecast

Advertisements
Track Severe Weather on mobile